Airfield :
LOGIN :

Register | Disclaimer

   EN    FR    IT 

 










Legend :    VFR   Marginal VFR   IFR   Intensive IFR   Very Intensive IFR
Visi :
Ceiling :
>= 8 km
>= 3000ft
5 to 8 km
1000 to 3000 ft
1500m to 5 km
500 to 1000 ft
800 to 1500m
200 to 500 ft
< 800m
< 200 ft
Symbols :   Thunderstorms  Fog  Heavy snow  Heavy precipitations  Wind > 20 kt
SIGMETs :     Misc.  Thunderstorms  Icing  Turbulence  Mountain Waves  Volcanic Ashes







- Airport Elevation : 2096 ft
- IATA code : AUR
- Download approach charts


LFLW - Aurillac

CURRENT METAR :
  • 231400Z AUTO VRB02KT 1200 R15/1000U -SN BR SCT010 BKN015 BKN021 01/00 Q1010 TEMPO BKN005 BKN014TCU BECMG 1500 -SN

EXPIRED METARs :
  • 231330Z AUTO 00000KT 0800 0700 R15/1000U -SN FG FEW005/// BKN010/// OVC016/// ///TCU 01/01 Q1010 BECMG 1500 -SN BKN011 OVC014
  • 231300Z AUTO VRB02KT 0900 R15/1300D -SN FG OVC012/// ///TCU 00/00 Q1010 TEMPO 3500 SHRA BKN005 BKN014TCU
  • 231230Z AUTO VRB02KT 0900 0800 R15/1200D -SN FG BKN010/// OVC014/// ///TCU 00/00 Q1010 TEMPO 3500 SHRA
  • 231200Z AUTO 00000KT 1300 1100 R15/1900D -SN BR SCT003 BKN014 OVC019 00/00 Q1010 TEMPO 2500 SNRA BKN005 BKN014TCU
  • 231130Z AUTO 00000KT 1400 R15/1600U -SN BR FEW006 BKN010 OVC015 00/00 Q1009 TEMPO 2500 SNRA BKN005 BKN014TCU

TAF AMD TAF LFLW
Valid from the 23 at 12:00 until the 23 at 21:00 UTC


231245Z 2312/2321 VRB03KT 1500 -SN BKN011 OVC014
TEMPO 2312/2315 3500 SHRA BKN005 BKN014TCU
PROB40
TEMPO 2312/2314 SN OVC010
PROB40
TEMPO 2312/2314 0900 FG
PROB40
TEMPO 2317/2321 NSW
No reported NOTAMs for that airfield.



MET'MAP, your aeronautical weather chart ! - Copyright ORBIFLY December 2007 - Disclaimer

ORBIFLY MET'MAP TEAM :

Programming & Development : Alexandra Zaïnal
Concept & Development : Baudouin d'Aumeries
Co-Development & Prog : Marc-Olivier Méhu
Technical & hardware support : Manuel Goepfert

Contact : metmap@orbifly.com




SOURCES & CREDITS :

   NOAA